Latest Weather Forecast - Thursday 11th October 2018 (6pm)

Date: Thursday, 11th October 2018
Valid from: 6:00 pm to 6:00 am
Synopsis:

Unstable conditions will continue to affect the islands

Forecast: Generally cloudy with some scattered showers, periods of rain and possible isolated thunderstorms
Weather Advisory/Warning: Residents and motorist near rivers,streams and low lying areas should be alert
Winds: E to ESE at 15 to 25 km/h,higher gust near showers
Sea Conditions: Slight to moderate  in open water;with northerly swells 1.0 to 2.0m
Marine 
Advisory/Warning:
None
Tides:
High: 8:15 am 10:19 pm  
Low: 1:54 am 4:23 pm

Aviation WX

[Source: ADDS]
METAR
TVSA 180200Z 08012KT 9999 SCT014 27/24 Q1013 =
TVSA 180500Z 1806/1906 08012KT 9999 SCT016 SCT032 PROB30 TEMPO 1810/1816 SHRA RA BKN014 FEW015CB PROB30 TEMPO 1820/1902 SHRA RA BKN014 FEW015CB
TAF
TVSA 180500Z 1806/1906 08012KT 9999 SCT016 SCT032 PROB30 TEMPO 1810/1816 SHRA RA BKN014 FEW015CB PROB30 TEMPO 1820/1902 SHRA RA BKN014 FEW015CB =
SR / SS: 09:55 / 21:43 UTC (Sunrise Sunset 2018-10-18)